Time;durP1;ratioP1;P1;durP2;ratioP2;P2;SDS_P1;SDS_P2;PMS_P1;PMS_P2;Temp;Humidity;BMP_temperature;BMP_pressure;BME280_temperature;BME280_humidity;BME280_pressure;Samples;Min_cycle;Max_cycle;Signal;HPM_P1;HPM_P2
2022/02/03 00:03:52;;;;;;;15.48;4.58;;;;;;;-0.87;100.00;100664.40;3733577;77;98928;-92
2022/02/03 00:25:17;;;;;;;11.83;4.40;;;;;;;-0.99;100.00;100702.41;3608243;80;99142;-95
2022/02/03 00:30:18;;;;;;;11.05;4.10;;;;;;;-0.99;100.00;100705.12;3612050;80;98980;-93
2022/02/03 00:50:59;;;;;;;11.08;3.83;;;;;;;-0.91;100.00;100745.77;3624414;79;99269;-91
2022/02/03 00:56:08;;;;;;;10.53;4.13;;;;;;;-0.85;100.00;100757.28;3619419;78;99178;-92
2022/02/03 01:01:14;;;;;;;12.90;4.25;;;;;;;-0.79;100.00;100771.78;3626161;78;99235;-92
2022/02/03 01:06:17;;;;;;;10.53;3.92;;;;;;;-0.73;100.00;100771.95;3599135;80;99061;-92
2022/02/03 01:11:25;;;;;;;14.80;4.80;;;;;;;-0.65;100.00;100775.36;3608989;80;99289;-92
2022/02/03 01:43:18;;;;;;;13.03;4.07;;;;;;;-0.33;100.00;100767.23;3592749;80;99331;-92
2022/02/03 01:48:06;;;;;;;11.30;3.70;;;;;;;-0.29;100.00;100760.14;3605652;81;99334;-92
2022/02/03 01:53:00;;;;;;;11.90;4.40;;;;;;;-0.32;100.00;100764.80;3638952;79;25584;-92
2022/02/03 01:58:20;;;;;;;10.82;4.40;;;;;;;-0.36;100.00;100754.32;3651833;79;99017;-94
2022/02/03 02:03:43;;;;;;;12.88;5.60;;;;;;;-0.37;100.00;100760.27;3628327;80;99352;-93
2022/02/03 02:09:39;;;;;;;13.25;5.08;;;;;;;-0.42;100.00;100769.56;3716565;78;99254;-94
2022/02/03 02:47:27;;;;;;;8.63;3.43;;;;;;;-0.93;100.00;100790.38;3721214;77;99182;-92
2022/02/03 02:52:38;;;;;;;10.03;4.10;;;;;;;-0.99;100.00;100790.20;3725373;77;25771;-91
2022/02/03 03:30:20;;;;;;;20.88;8.33;;;;;;;-0.95;100.00;100770.94;3628717;80;99775;-90
2022/02/03 03:35:32;;;;;;;14.60;6.37;;;;;;;-0.88;100.00;100780.86;3598119;80;99643;-90
2022/02/03 03:40:17;;;;;;;14.57;4.60;;;;;;;-0.83;100.00;100786.19;3567934;81;98961;-91
2022/02/03 03:45:20;;;;;;;13.63;4.27;;;;;;;-0.76;100.00;100774.45;3594184;80;99207;-91
2022/02/03 03:50:25;;;;;;;11.90;4.83;;;;;;;-0.69;100.00;100782.44;3592922;81;99088;-91
2022/02/03 03:55:58;;;;;;;11.73;3.83;;;;;;;-0.60;100.00;100786.63;3590823;80;99035;-90
2022/02/03 04:28:51;;;;;;;10.18;3.65;;;;;;;-0.54;100.00;100793.02;3582990;80;99414;-90
2022/02/03 04:56:13;;;;;;;9.95;3.20;;;;;;;0.09;100.00;100809.77;3535285;79;98858;-89
2022/02/03 05:01:27;;;;;;;13.58;4.10;;;;;;;0.15;100.00;100799.10;3586513;80;99067;-90
2022/02/03 05:07:20;;;;;;;14.50;3.47;;;;;;;0.18;100.00;100805.25;3588332;81;98821;-90
2022/02/03 05:12:38;;;;;;;10.53;2.87;;;;;;;0.23;100.00;100803.02;3578353;80;98807;-90
2022/02/03 05:19:08;;;;;;;14.30;3.63;;;;;;;0.26;100.00;100807.28;3578369;80;98506;-90
2022/02/03 05:23:54;;;;;;;11.37;3.27;;;;;;;0.31;100.00;100816.66;3556190;80;25837;-93
2022/02/03 06:00:45;;;;;;;14.20;4.00;;;;;;;0.52;100.00;100831.42;3616156;80;99197;-92
2022/02/03 06:21:38;;;;;;;17.37;8.70;;;;;;;0.65;100.00;100831.14;3598669;80;99148;-89
2022/02/03 06:31:54;;;;;;;24.27;9.15;;;;;;;0.70;100.00;100818.85;3608866;80;98733;-91
2022/02/03 06:36:55;;;;;;;18.10;5.00;;;;;;;0.71;100.00;100809.65;3574671;80;99158;-94
2022/02/03 06:42:00;;;;;;;17.37;6.20;;;;;;;0.73;100.00;100795.23;3564164;81;33249;-93
2022/02/03 06:47:11;;;;;;;26.30;6.80;;;;;;;0.73;100.00;100793.88;3548790;82;98965;-90
2022/02/03 06:52:15;;;;;;;24.37;6.55;;;;;;;0.72;100.00;100802.55;3542402;81;97836;-92
2022/02/03 06:57:18;;;;;;;13.60;5.50;;;;;;;0.75;100.00;100805.20;3544222;81;98907;-90
2022/02/03 07:02:14;;;;;;;17.35;5.95;;;;;;;0.77;100.00;100805.72;3550888;82;99122;-91
2022/02/03 07:07:17;;;;;;;24.30;8.13;;;;;;;0.76;100.00;100790.55;3544117;79;99272;-90
2022/02/03 07:12:20;;;;;;;23.80;7.10;;;;;;;0.77;100.00;100781.34;3555323;81;99190;-90
2022/02/03 07:17:21;;;;;;;17.05;6.17;;;;;;;0.79;100.00;100775.87;3545653;82;98548;-90
2022/02/03 07:22:22;;;;;;;22.50;7.90;;;;;;;0.81;100.00;100772.84;3551107;82;98713;-93
2022/02/03 07:27:25;;;;;;;24.17;9.87;;;;;;;0.83;100.00;100767.37;3544326;82;99141;-93
2022/02/03 07:32:25;;;;;;;37.73;15.18;;;;;;;0.84;100.00;100764.93;3554798;81;99161;-93
2022/02/03 07:37:29;;;;;;;34.03;12.30;;;;;;;0.84;100.00;100760.87;3577480;82;98959;-93
2022/02/03 07:42:30;;;;;;;28.32;10.32;;;;;;;0.84;100.00;100764.12;3565408;80;99002;-96
2022/02/03 07:47:31;;;;;;;30.27;9.30;;;;;;;0.90;100.00;100764.25;3574798;80;98995;-93
2022/02/03 07:52:31;;;;;;;30.77;10.43;;;;;;;0.91;100.00;100765.84;3588602;80;98676;-90
2022/02/03 07:57:34;;;;;;;31.20;10.63;;;;;;;0.95;100.00;100771.73;3580320;80;99166;-91
2022/02/03 08:02:36;;;;;;;28.23;10.83;;;;;;;0.97;100.00;100780.34;3631468;79;98244;-93
2022/02/03 08:08:01;;;;;;;34.45;13.43;;;;;;;0.98;100.00;100773.81;3591659;81;99060;-91
2022/02/03 08:13:00;;;;;;;34.63;14.68;;;;;;;0.99;100.00;100763.78;3599328;81;99325;-92
2022/02/03 08:18:04;;;;;;;34.25;15.68;;;;;;;1.00;100.00;100764.03;3556019;81;99107;-91
2022/02/03 08:33:32;;;;;;;39.18;18.98;;;;;;;1.10;100.00;100742.12;3632753;79;98295;-95
2022/02/03 08:38:45;;;;;;;26.62;13.08;;;;;;;1.17;100.00;100732.45;3589672;80;98496;-92
2022/02/03 08:43:38;;;;;;;35.70;12.15;;;;;;;1.23;100.00;100739.36;3598421;80;99551;-93
2022/02/03 08:48:40;;;;;;;27.25;12.40;;;;;;;1.26;100.00;100738.73;3598378;80;99675;-92
2022/02/03 08:53:52;;;;;;;31.77;12.28;;;;;;;1.32;100.00;100735.35;3605201;81;26153;-95
2022/02/03 09:56:52;;;;;;;23.50;8.68;;;;;;;2.21;100.00;100699.59;3586477;81;99091;-90
2022/02/03 10:01:44;;;;;;;27.20;8.13;;;;;;;2.36;100.00;100691.56;3581572;81;99345;-88
2022/02/03 10:06:53;;;;;;;22.32;8.35;;;;;;;2.58;100.00;100681.93;3592035;80;99275;-90
2022/02/03 10:11:51;;;;;;;25.80;7.83;;;;;;;2.75;100.00;100675.97;3594773;81;25629;-89
2022/02/03 10:16:56;;;;;;;17.87;6.62;;;;;;;2.91;100.00;100674.92;3568147;81;99343;-90
2022/02/03 10:21:57;;;;;;;24.60;6.25;;;;;;;3.09;100.00;100657.47;3587438;80;97884;-90
2022/02/03 10:26:58;;;;;;;25.27;7.63;;;;;;;3.28;100.00;100656.00;3603845;78;99349;-89
2022/02/03 10:31:59;;;;;;;21.37;7.23;;;;;;;3.49;100.00;100642.53;3588920;81;98890;-91
2022/02/03 10:37:26;;;;;;;21.03;6.20;;;;;;;3.72;100.00;100628.33;3614682;79;99318;-90
2022/02/03 11:03:23;;;;;;;21.95;6.50;;;;;;;4.81;100.00;100610.83;3575475;80;99377;-90
2022/02/03 11:08:26;;;;;;;25.12;7.97;;;;;;;4.98;100.00;100610.12;3570749;80;99279;-89
2022/02/03 11:13:28;;;;;;;18.42;6.42;;;;;;;5.08;100.00;100609.67;3573980;81;99391;-90
2022/02/03 11:18:30;;;;;;;26.20;9.00;;;;;;;5.13;100.00;100602.64;3568992;81;99277;-90
2022/02/03 11:23:38;;;;;;;18.93;6.13;;;;;;;5.23;100.00;100595.41;3587731;80;26158;-92
2022/02/03 11:39:40;;;;;;;28.07;7.42;;;;;;;5.48;100.00;100576.59;3573208;80;98986;-89
2022/02/03 12:06:21;;;;;;;15.98;4.00;;;;;;;5.81;97.88;100552.75;3593523;80;25946;-91
2022/02/03 12:27:30;;;;;;;18.60;4.15;;;;;;;6.22;98.14;100547.58;3578068;81;99115;-90
2022/02/03 12:47:42;;;;;;;22.30;5.58;;;;;;;6.38;95.47;100511.55;3587812;80;98657;-88
2022/02/03 12:52:44;;;;;;;17.45;3.95;;;;;;;6.42;95.86;100507.77;3587733;81;98625;-92
2022/02/03 12:57:49;;;;;;;20.17;4.95;;;;;;;6.47;96.45;100503.98;3581295;80;99009;-87
2022/02/03 13:02:59;;;;;;;18.50;5.30;;;;;;;6.55;95.51;100500.32;3588902;81;98996;-92
2022/02/03 13:08:09;;;;;;;20.52;4.92;;;;;;;6.63;95.41;100500.17;3565086;81;99071;-90
2022/02/03 13:13:17;;;;;;;19.82;5.22;;;;;;;6.68;94.86;100501.28;3587622;80;98577;-90
2022/02/03 13:18:32;;;;;;;15.55;3.90;;;;;;;6.74;94.67;100499.08;3583690;80;98720;-90
2022/02/03 13:23:33;;;;;;;14.78;5.45;;;;;;;6.78;94.62;100499.98;3583909;81;25973;-89
2022/02/03 13:28:46;;;;;;;20.27;5.10;;;;;;;6.83;94.99;100496.41;3576055;81;98520;-88
2022/02/03 13:33:51;;;;;;;22.30;6.20;;;;;;;6.88;94.06;100496.15;3590352;81;98533;-91
2022/02/03 13:39:45;;;;;;;17.85;5.53;;;;;;;6.89;93.28;100488.19;3587798;81;99100;-89
2022/02/03 13:44:09;;;;;;;17.55;5.95;;;;;;;6.90;93.62;100491.14;3566403;81;98693;-86
2022/02/03 13:49:23;;;;;;;19.35;5.80;;;;;;;6.90;93.69;100486.23;3580865;81;98818;-85
2022/02/03 13:54:58;;;;;;;22.40;6.15;;;;;;;6.88;94.17;100485.20;3591231;80;99153;-88
2022/02/03 14:21:20;;;;;;;24.60;8.23;;;;;;;6.55;94.44;100464.19;3577694;81;98826;-88
2022/02/03 14:31:39;;;;;;;26.97;9.33;;;;;;;6.43;94.83;100448.44;3573960;80;98620;-91
2022/02/03 14:36:44;;;;;;;30.72;8.98;;;;;;;6.41;95.42;100441.13;3571300;80;99073;-89
2022/02/03 14:53:39;;;;;;;33.37;12.17;;;;;;;6.37;95.62;100419.73;3617966;77;34783;-89
2022/02/03 14:58:34;;;;;;;33.83;11.22;;;;;;;6.29;95.86;100420.70;3468182;83;98771;-89
2022/02/03 15:03:35;;;;;;;42.40;16.10;;;;;;;6.25;96.19;100423.33;3445564;84;98828;-93
2022/02/03 15:13:48;;;;;;;30.90;12.55;;;;;;;6.21;96.55;100423.02;3469500;83;98545;-90
2022/02/03 15:18:48;;;;;;;41.23;15.07;;;;;;;6.18;96.73;100414.95;3461885;82;99281;-91
2022/02/03 15:23:49;;;;;;;33.17;14.37;;;;;;;6.16;96.93;100401.41;3534877;82;34944;-90
2022/02/03 15:28:51;;;;;;;35.57;15.90;;;;;;;6.11;97.05;100384.67;3487714;82;99192;-91
2022/02/03 15:33:57;;;;;;;29.53;12.27;;;;;;;6.14;97.43;100390.81;3537099;80;99130;-90
2022/02/03 15:38:55;;;;;;;46.58;19.37;;;;;;;6.15;97.48;100380.67;3488432;82;98874;-91
2022/02/03 15:43:59;;;;;;;100.92;41.50;;;;;;;6.14;97.59;100379.08;3519444;80;98903;-91
2022/02/03 15:49:17;;;;;;;50.35;22.00;;;;;;;6.13;97.84;100374.20;3513838;81;99401;-88
2022/02/03 16:00:43;;;;;;;50.20;21.17;;;;;;;6.09;97.89;100356.91;3533598;80;99177;-91
2022/02/03 16:20:44;;;;;;;102.62;36.48;;;;;;;6.01;98.80;100342.05;3508164;81;99258;-90
2022/02/03 16:26:27;;;;;;;76.45;28.77;;;;;;;5.98;99.22;100335.90;3540844;80;99517;-90
2022/02/03 16:57:20;;;;;;;51.13;20.50;;;;;;;5.77;100.00;100325.70;3559453;80;99019;-88
2022/02/03 17:02:18;;;;;;;52.98;20.48;;;;;;;5.72;100.00;100322.66;3563126;79;99437;-89
2022/02/03 17:07:19;;;;;;;50.67;21.03;;;;;;;5.68;100.00;100324.48;3536370;81;99021;-88
2022/02/03 17:12:21;;;;;;;46.47;20.20;;;;;;;5.64;100.00;100317.34;3532215;82;34906;-88
2022/02/03 17:17:22;;;;;;;45.90;19.60;;;;;;;5.60;100.00;100311.79;3523226;80;99055;-87
2022/02/03 17:22:31;;;;;;;46.57;20.60;;;;;;;5.56;100.00;100307.38;3524225;80;99190;-88
2022/02/03 17:27:38;;;;;;;45.83;20.67;;;;;;;5.51;100.00;100301.58;3517795;80;99476;-86
2022/02/03 18:30:10;;;;;;;36.38;16.05;;;;;;;5.12;100.00;100257.34;3513999;82;99107;-90
2022/02/03 18:35:32;;;;;;;35.88;15.23;;;;;;;5.11;100.00;100257.69;3510424;82;99284;-89
2022/02/03 19:27:54;;;;;;;37.03;19.83;;;;;;;5.02;100.00;100234.64;3479901;82;99625;-87
2022/02/03 20:14:34;;;;;;;34.77;17.43;;;;;;;5.05;100.00;100201.23;3467184;82;99454;-88
2022/02/03 20:19:35;;;;;;;37.87;19.77;;;;;;;5.06;100.00;100200.65;3457545;82;99658;-88
2022/02/03 20:24:36;;;;;;;38.23;19.97;;;;;;;5.07;100.00;100186.67;3471145;84;35463;-89
2022/02/03 20:29:37;;;;;;;41.13;21.87;;;;;;;5.09;100.00;100180.32;3463445;82;99389;-86
2022/02/03 20:34:38;;;;;;;34.30;19.67;;;;;;;5.11;100.00;100182.68;3469474;83;99198;-85
2022/02/03 20:39:40;;;;;;;35.03;18.63;;;;;;;5.10;100.00;100175.08;3467980;82;99382;-88
2022/02/03 20:44:44;;;;;;;36.50;20.77;;;;;;;5.08;100.00;100174.62;3471711;82;99547;-90
2022/02/03 20:49:45;;;;;;;39.53;22.90;;;;;;;5.09;100.00;100174.87;3467978;82;99599;-89
2022/02/03 20:54:47;;;;;;;38.03;21.27;;;;;;;5.11;100.00;100167.67;3530711;82;29845;-88
2022/02/03 21:05:05;;;;;;;41.88;23.55;;;;;;;5.14;100.00;100159.59;3527676;81;99297;-89
2022/02/03 21:10:06;;;;;;;40.20;22.90;;;;;;;5.16;100.00;100155.16;3524802;81;99096;-87
2022/02/03 21:15:09;;;;;;;45.35;23.40;;;;;;;5.16;100.00;100149.70;3522390;81;98941;-91
2022/02/03 21:20:23;;;;;;;48.45;24.47;;;;;;;5.18;100.00;100155.63;3512884;81;99055;-90
2022/02/03 21:30:41;;;;;;;43.58;23.32;;;;;;;5.20;100.00;100159.59;3401933;81;99088;-88
